createdAt,value
2017-12-27T00:00:42.861Z,2.50
2017-12-27T00:03:16.051Z,13.33
2017-12-27T00:05:49.472Z,2.50
2017-12-27T00:08:22.515Z,6.10
2017-12-27T00:10:55.664Z,4.53
2017-12-27T00:13:29.834Z,6.00
2017-12-27T00:16:03.591Z,4.80
2017-12-27T00:18:36.717Z,4.17
2017-12-27T00:21:09.920Z,3.40
2017-12-27T00:23:43.245Z,1.80
2017-12-27T00:26:16.682Z,2.77
2017-12-27T00:28:50.744Z,4.80
2017-12-27T00:31:28.577Z,1.57
2017-12-27T00:33:56.008Z,4.30
2017-12-27T00:36:23.476Z,6.47
2017-12-27T00:38:51.348Z,1.77
2017-12-27T00:41:18.909Z,1.70
2017-12-27T00:43:46.999Z,1.73
2017-12-27T00:46:15.210Z,1.83
2017-12-27T00:48:43.123Z,3.00
2017-12-27T00:51:10.568Z,3.97
2017-12-27T00:53:38.907Z,7.67
2017-12-27T00:56:06.336Z,4.30
2017-12-27T00:58:33.875Z,5.23
2017-12-27T01:01:01.274Z,6.53
2017-12-27T01:03:28.734Z,2.60
2017-12-27T01:05:56.402Z,4.00
2017-12-27T01:08:23.954Z,3.87
2017-12-27T01:10:51.406Z,1.10
2017-12-27T01:13:19.056Z,3.77
2017-12-27T01:15:46.894Z,6.80
2017-12-27T01:18:15.098Z,3.57
2017-12-27T01:20:42.874Z,5.20
2017-12-27T01:23:10.526Z,2.13
2017-12-27T01:25:38.430Z,5.80
2017-12-27T01:28:05.877Z,2.00
2017-12-27T01:30:33.649Z,2.20
2017-12-27T01:33:01.107Z,3.27
2017-12-27T01:35:28.573Z,10.23
2017-12-27T01:37:56.032Z,1.87
2017-12-27T01:40:23.498Z,7.93
2017-12-27T01:42:51.106Z,2.50
2017-12-27T01:45:18.566Z,4.10
2017-12-27T01:47:46.558Z,1.40
2017-12-27T01:50:14.953Z,4.73
2017-12-27T01:52:42.392Z,3.57
2017-12-27T01:55:09.923Z,1.37
2017-12-27T01:57:37.380Z,5.60
2017-12-27T02:00:04.852Z,6.03
2017-12-27T02:02:32.304Z,4.90
2017-12-27T02:04:59.749Z,9.53
2017-12-27T02:07:27.359Z,2.10
2017-12-27T02:09:55.924Z,1.63
2017-12-27T02:12:23.992Z,4.70
2017-12-27T02:14:51.991Z,3.37
2017-12-27T02:17:20.192Z,1.90
2017-12-27T02:19:47.797Z,10.27
2017-12-27T02:22:15.425Z,5.93
2017-12-27T02:24:43.440Z,1.50
2017-12-27T02:27:10.955Z,5.10
2017-12-27T02:29:39.160Z,2.00
2017-12-27T02:32:07.333Z,8.37
2017-12-27T02:34:34.793Z,3.97
2017-12-27T02:37:03.029Z,3.20
2017-12-27T02:39:56.495Z,5.30
2017-12-27T02:42:24.029Z,3.37
2017-12-27T02:44:52.233Z,2.50
2017-12-27T02:47:20.540Z,2.47
2017-12-27T02:49:47.967Z,4.00
2017-12-27T02:52:15.868Z,4.70
2017-12-27T02:54:43.328Z,1.97
2017-12-27T02:57:11.500Z,1.60
2017-12-27T02:59:39.145Z,3.43
2017-12-27T03:02:07.012Z,1.97
2017-12-27T03:04:34.468Z,7.10
2017-12-27T03:07:01.909Z,1.07
2017-12-27T03:09:29.594Z,3.80
2017-12-27T03:11:57.574Z,3.10
2017-12-27T03:14:25.635Z,1.70
2017-12-27T03:16:53.157Z,2.57
2017-12-27T03:19:20.637Z,6.47
2017-12-27T03:21:48.067Z,6.10
2017-12-27T03:24:15.511Z,1.53
2017-12-27T03:26:43.293Z,3.83
2017-12-27T03:29:11.443Z,2.10
2017-12-27T03:31:38.881Z,1.90
2017-12-27T03:34:07.192Z,4.00
2017-12-27T03:36:34.657Z,4.37
2017-12-27T03:39:02.105Z,6.83
2017-12-27T03:41:30.383Z,1.77
2017-12-27T03:43:57.829Z,2.00
2017-12-27T03:46:26.113Z,4.03
2017-12-27T03:48:53.953Z,5.37
2017-12-27T03:51:22.158Z,2.30
2017-12-27T03:53:49.712Z,3.43
2017-12-27T03:56:17.131Z,2.30
2017-12-27T03:58:45.355Z,6.43
2017-12-27T04:01:12.833Z,3.60
2017-12-27T04:03:40.768Z,3.17
2017-12-27T04:06:08.215Z,1.20
2017-12-27T04:08:35.661Z,2.00
2017-12-27T04:11:03.468Z,2.60
2017-12-27T04:13:30.909Z,1.50
2017-12-27T04:15:58.865Z,6.90
2017-12-27T04:18:26.284Z,3.90
2017-12-27T04:20:54.663Z,4.53
2017-12-27T04:23:22.899Z,1.97
2017-12-27T04:25:50.984Z,1.83
2017-12-27T04:28:18.416Z,1.97
2017-12-27T04:30:46.300Z,2.67
2017-12-27T04:33:13.931Z,3.37
2017-12-27T04:35:41.432Z,3.57
2017-12-27T04:38:08.871Z,2.67
2017-12-27T04:40:37.049Z,1.43
2017-12-27T04:43:04.493Z,2.30
2017-12-27T04:45:31.964Z,1.63
2017-12-27T04:47:59.824Z,2.10
2017-12-27T04:50:28.375Z,1.27
2017-12-27T04:52:55.800Z,3.33
2017-12-27T04:55:24.025Z,2.40
2017-12-27T04:57:51.483Z,2.13
2017-12-27T05:00:18.988Z,4.00
2017-12-27T05:02:47.428Z,3.73
2017-12-27T05:05:14.880Z,2.97
2017-12-27T05:07:42.413Z,2.43
2017-12-27T05:10:09.903Z,6.30
2017-12-27T05:12:37.411Z,2.97
2017-12-27T05:15:05.963Z,1.10
2017-12-27T05:17:33.403Z,1.30
2017-12-27T05:20:00.856Z,4.60
2017-12-27T05:22:28.836Z,2.57
2017-12-27T05:24:56.808Z,1.83
2017-12-27T05:27:24.319Z,9.50
2017-12-27T05:29:52.290Z,3.20
2017-12-27T05:32:19.744Z,1.43
2017-12-27T05:34:47.307Z,8.13
2017-12-27T05:37:14.759Z,8.43
2017-12-27T05:39:42.319Z,3.10
2017-12-27T05:42:09.905Z,2.73
2017-12-27T05:44:37.347Z,2.23
2017-12-27T05:47:05.331Z,2.00
2017-12-27T05:49:33.664Z,2.80
2017-12-27T05:52:02.498Z,7.50
2017-12-27T05:54:29.964Z,3.60
2017-12-27T05:56:57.635Z,1.50
2017-12-27T05:59:25.246Z,2.50
2017-12-27T06:01:52.680Z,4.17
2017-12-27T06:04:20.613Z,4.33
2017-12-27T06:06:48.084Z,4.30
2017-12-27T06:09:16.839Z,3.40
2017-12-27T06:11:44.296Z,2.03
2017-12-27T06:14:12.572Z,2.13
2017-12-27T06:16:40.005Z,2.60
2017-12-27T06:19:07.557Z,2.90
2017-12-27T06:21:35.017Z,2.63
2017-12-27T06:24:02.482Z,1.23
2017-12-27T06:26:30.682Z,2.93
2017-12-27T06:28:58.924Z,1.90
2017-12-27T06:31:26.944Z,2.67
2017-12-27T06:33:54.388Z,1.97
2017-12-27T06:36:22.046Z,2.10
2017-12-27T06:38:49.772Z,2.20
2017-12-27T06:41:17.201Z,1.10
2017-12-27T06:43:44.678Z,2.07
2017-12-27T06:46:12.122Z,4.27
2017-12-27T06:48:40.153Z,1.73
2017-12-27T06:51:07.668Z,1.90
2017-12-27T06:53:35.131Z,4.37
2017-12-27T06:56:02.562Z,1.83
2017-12-27T06:58:30.488Z,3.13
2017-12-27T07:00:58.012Z,1.83
2017-12-27T07:03:25.695Z,1.33
2017-12-27T07:05:53.138Z,3.33
2017-12-27T07:08:20.666Z,1.87
2017-12-27T07:10:48.271Z,5.50
2017-12-27T07:13:15.708Z,1.80
2017-12-27T07:15:43.508Z,1.57
2017-12-27T07:18:10.944Z,3.60
2017-12-27T07:20:38.716Z,1.83
2017-12-27T07:23:06.152Z,3.13
2017-12-27T07:25:34.089Z,2.73
2017-12-27T07:28:01.557Z,2.63
2017-12-27T07:30:29.665Z,3.17
2017-12-27T07:32:57.142Z,2.53
2017-12-27T07:35:24.607Z,2.23
2017-12-27T07:37:52.536Z,1.70
2017-12-27T07:40:20.508Z,3.00
2017-12-27T07:42:47.976Z,1.73
2017-12-27T07:45:15.547Z,2.73
2017-12-27T07:47:43.809Z,2.97
2017-12-27T07:50:12.172Z,2.00
2017-12-27T07:52:39.607Z,1.33
2017-12-27T07:55:07.165Z,1.70
2017-12-27T07:57:34.725Z,2.20
2017-12-27T08:00:02.489Z,2.83
2017-12-27T08:02:30.660Z,4.10
2017-12-27T08:04:58.222Z,3.03
2017-12-27T08:07:25.679Z,1.63
2017-12-27T08:09:53.146Z,3.97
2017-12-27T08:12:20.652Z,3.97
2017-12-27T08:14:49.404Z,5.77
2017-12-27T08:17:16.936Z,3.47
2017-12-27T08:19:44.353Z,1.60
2017-12-27T08:22:12.797Z,1.63
2017-12-27T08:24:40.813Z,2.10
2017-12-27T08:27:09.042Z,3.70
2017-12-27T08:29:36.812Z,2.50
2017-12-27T08:32:04.785Z,1.80
2017-12-27T08:34:32.780Z,2.47
2017-12-27T08:37:01.094Z,1.70
2017-12-27T08:39:28.676Z,3.37
2017-12-27T08:41:56.281Z,1.93
2017-12-27T08:44:24.587Z,3.33
2017-12-27T08:46:52.032Z,2.17
2017-12-27T08:49:19.859Z,2.07
2017-12-27T08:51:47.925Z,2.60
2017-12-27T08:54:16.869Z,2.17
2017-12-27T08:56:44.333Z,2.27
2017-12-27T08:59:11.768Z,3.70
2017-12-27T09:01:39.342Z,2.33
2017-12-27T09:04:06.804Z,1.60
2017-12-27T09:06:34.254Z,2.00
2017-12-27T09:09:01.753Z,1.80
2017-12-27T09:11:29.345Z,2.00
2017-12-27T09:13:58.207Z,3.40
2017-12-27T09:16:25.668Z,3.77
2017-12-27T09:18:53.122Z,2.20
2017-12-27T09:21:21.134Z,2.80
2017-12-27T09:23:48.944Z,3.30
2017-12-27T09:26:16.946Z,3.63
2017-12-27T09:28:45.256Z,2.80
2017-12-27T09:31:13.324Z,2.40
2017-12-27T09:33:40.821Z,2.90
2017-12-27T09:36:08.261Z,3.50
2017-12-27T09:38:35.750Z,2.90
2017-12-27T09:41:03.272Z,5.00
2017-12-27T09:43:30.756Z,1.73
2017-12-27T09:45:58.221Z,3.00
2017-12-27T09:48:25.953Z,3.90
2017-12-27T09:50:53.836Z,2.50
2017-12-27T09:53:21.300Z,1.70
2017-12-27T09:55:50.237Z,2.40
2017-12-27T09:58:17.829Z,2.90
2017-12-27T10:00:45.325Z,3.90
2017-12-27T10:03:13.628Z,2.73
2017-12-27T10:05:41.214Z,2.87
2017-12-27T10:08:08.991Z,1.83
2017-12-27T10:10:36.961Z,2.80
2017-12-27T10:13:04.396Z,2.70
2017-12-27T10:15:32.312Z,1.80
2017-12-27T10:18:00.524Z,2.70
2017-12-27T10:20:28.597Z,1.63
2017-12-27T10:22:56.127Z,3.17
2017-12-27T10:25:24.742Z,1.77
2017-12-27T10:27:52.165Z,1.83
2017-12-27T10:30:20.924Z,2.60
2017-12-27T10:32:48.394Z,1.80
2017-12-27T10:35:16.624Z,3.93
2017-12-27T10:37:44.067Z,1.43
2017-12-27T10:40:11.728Z,1.77
2017-12-27T10:42:39.266Z,2.87
2017-12-27T10:45:07.473Z,1.73
2017-12-27T10:47:35.269Z,1.63
2017-12-27T10:50:03.327Z,1.27
2017-12-27T10:52:30.790Z,1.23
2017-12-27T10:54:58.281Z,1.10
2017-12-27T10:57:26.490Z,1.90
2017-12-27T10:59:54.573Z,0.90
2017-12-27T11:02:22.099Z,0.80
2017-12-27T11:04:49.524Z,1.40
2017-12-27T11:07:17.757Z,0.90
2017-12-27T11:09:45.434Z,1.73
2017-12-27T11:12:13.040Z,1.23
2017-12-27T11:14:42.104Z,1.73
2017-12-27T11:17:09.876Z,1.73
2017-12-27T11:19:38.118Z,5.43
2017-12-27T11:22:05.556Z,0.90
2017-12-27T11:24:33.659Z,0.90
2017-12-27T11:27:01.122Z,2.33
2017-12-27T11:29:29.357Z,1.20
2017-12-27T11:31:56.816Z,0.63
2017-12-27T11:34:24.250Z,0.80
2017-12-27T11:36:52.105Z,1.37
2017-12-27T11:39:20.423Z,0.80
2017-12-27T11:41:47.878Z,0.80
2017-12-27T11:44:15.361Z,1.20
2017-12-27T11:46:42.882Z,0.80
2017-12-27T11:49:11.093Z,0.73
2017-12-27T11:51:38.865Z,1.20
2017-12-27T11:54:06.311Z,3.03
2017-12-27T11:56:33.774Z,1.63
2017-12-27T11:59:01.289Z,1.03
2017-12-27T12:01:28.748Z,2.13
2017-12-27T12:03:56.321Z,1.10
2017-12-27T12:06:23.841Z,0.73
2017-12-27T12:08:51.334Z,1.03
2017-12-27T12:11:19.113Z,1.10
2017-12-27T12:13:46.565Z,3.60
2017-12-27T12:16:14.542Z,0.80
2017-12-27T12:18:41.974Z,1.47
2017-12-27T12:21:09.553Z,1.10
2017-12-27T12:23:36.991Z,1.10
2017-12-27T12:26:04.787Z,1.40
2017-12-27T12:28:32.231Z,1.70
2017-12-27T12:31:00.042Z,1.20
2017-12-27T12:33:27.481Z,2.50
2017-12-27T12:35:56.038Z,1.33
2017-12-27T12:38:23.480Z,2.50
2017-12-27T12:40:51.017Z,1.50
2017-12-27T12:43:18.436Z,1.10
2017-12-27T12:45:46.663Z,1.83
2017-12-27T12:48:15.105Z,1.30
2017-12-27T12:50:42.611Z,1.20
2017-12-27T12:53:10.047Z,1.43
2017-12-27T12:55:37.532Z,2.37
2017-12-27T12:58:04.979Z,2.03
2017-12-27T13:00:32.513Z,1.17
2017-12-27T13:02:59.973Z,1.17
2017-12-27T13:05:29.346Z,1.10
2017-12-27T13:07:56.824Z,2.40
2017-12-27T13:10:24.250Z,1.10
2017-12-27T13:12:52.576Z,2.50
2017-12-27T13:15:20.455Z,1.73
2017-12-27T13:17:47.929Z,1.77
2017-12-27T13:20:16.467Z,1.60
2017-12-27T13:22:44.486Z,1.20
2017-12-27T13:25:12.683Z,1.90
2017-12-27T13:27:40.879Z,1.27
2017-12-27T13:30:09.085Z,1.20
2017-12-27T13:32:36.512Z,1.10
2017-12-27T13:35:04.496Z,1.40
2017-12-27T13:37:31.932Z,1.60
2017-12-27T13:39:59.416Z,1.03
2017-12-27T13:42:26.918Z,2.17
2017-12-27T13:44:55.193Z,1.00
2017-12-27T13:47:23.940Z,3.00
2017-12-27T13:49:51.935Z,1.13
2017-12-27T13:52:19.767Z,1.10
2017-12-27T13:54:47.216Z,1.30
2017-12-27T13:57:14.691Z,2.53
2017-12-27T13:59:42.120Z,1.03
2017-12-27T14:02:09.675Z,1.67
2017-12-27T14:04:37.112Z,1.17
2017-12-27T14:07:04.726Z,2.27
2017-12-27T14:09:32.155Z,1.37
2017-12-27T14:12:00.161Z,1.67
2017-12-27T14:14:28.324Z,1.37
2017-12-27T14:16:56.572Z,1.83
2017-12-27T14:19:24.018Z,1.60
2017-12-27T14:21:51.512Z,1.83
2017-12-27T14:24:19.424Z,1.10
2017-12-27T14:26:47.954Z,2.60
2017-12-27T14:29:16.129Z,1.73
2017-12-27T14:31:43.659Z,1.40
2017-12-27T14:34:11.093Z,1.30
2017-12-27T14:36:38.561Z,1.43
2017-12-27T14:39:06.025Z,1.70
2017-12-27T14:41:33.475Z,1.43
2017-12-27T14:44:01.068Z,1.80
2017-12-27T14:46:28.540Z,1.37
2017-12-27T14:48:56.597Z,0.90
2017-12-27T14:51:24.051Z,1.87
2017-12-27T14:53:51.831Z,8.30
2017-12-27T14:56:20.785Z,3.70
2017-12-27T14:58:48.225Z,2.50
2017-12-27T15:01:16.235Z,2.80
2017-12-27T15:03:43.687Z,3.53
2017-12-27T15:06:11.572Z,1.97
2017-12-27T15:08:39.804Z,1.57
2017-12-27T15:11:07.265Z,3.47
2017-12-27T15:13:34.955Z,2.23
2017-12-27T15:16:02.785Z,3.53
2017-12-27T15:18:30.242Z,2.20
2017-12-27T15:20:57.665Z,1.60
2017-12-27T15:23:26.108Z,3.07
2017-12-27T15:25:53.817Z,3.67
2017-12-27T15:28:22.035Z,5.03
2017-12-27T15:30:49.918Z,4.10
2017-12-27T15:33:17.360Z,5.50
2017-12-27T15:35:44.934Z,1.70
2017-12-27T15:38:12.372Z,2.50
2017-12-27T15:40:39.936Z,4.33
2017-12-27T15:43:07.396Z,3.30
2017-12-27T15:45:35.369Z,2.17
2017-12-27T15:48:03.305Z,3.10
2017-12-27T15:50:31.097Z,3.10
2017-12-27T15:52:58.735Z,4.20
2017-12-27T15:55:26.186Z,2.77
2017-12-27T15:57:54.428Z,2.30
2017-12-27T16:00:22.633Z,2.93
2017-12-27T16:02:50.197Z,2.30
2017-12-27T16:05:18.551Z,2.77
2017-12-27T16:07:46.040Z,2.40
2017-12-27T16:10:13.481Z,4.73
2017-12-27T16:12:40.929Z,4.20
2017-12-27T16:15:08.911Z,1.87
2017-12-27T16:17:36.363Z,2.80
2017-12-27T16:20:03.833Z,3.40
2017-12-27T16:22:31.346Z,4.50
2017-12-27T16:24:59.279Z,4.93
2017-12-27T16:27:26.706Z,4.23
2017-12-27T16:29:54.672Z,3.57
2017-12-27T16:32:22.472Z,2.90
2017-12-27T16:34:49.946Z,3.33
2017-12-27T16:37:17.930Z,3.23
2017-12-27T16:39:46.157Z,2.53
2017-12-27T16:42:13.694Z,2.67
2017-12-27T16:44:41.246Z,2.33
2017-12-27T16:47:09.289Z,2.03
2017-12-27T16:49:37.939Z,3.20
2017-12-27T16:52:05.465Z,4.90
2017-12-27T16:54:32.889Z,2.43
2017-12-27T16:57:01.137Z,2.20
2017-12-27T16:59:30.116Z,2.03
2017-12-27T17:01:57.923Z,2.63
2017-12-27T17:04:26.111Z,4.60
2017-12-27T17:06:53.588Z,2.33
2017-12-27T17:09:21.071Z,4.60
2017-12-27T17:11:48.566Z,3.40
2017-12-27T17:14:17.383Z,2.43
2017-12-27T17:16:45.008Z,4.10
2017-12-27T17:19:12.434Z,4.07
2017-12-27T17:21:39.906Z,4.30
2017-12-27T17:24:07.417Z,2.97
2017-12-27T17:26:35.530Z,3.30
2017-12-27T17:29:03.551Z,4.77
2017-12-27T17:31:31.025Z,5.17
2017-12-27T17:33:59.119Z,3.97
2017-12-27T17:36:26.603Z,4.13
2017-12-27T17:38:54.833Z,7.33
2017-12-27T17:41:22.654Z,4.00
2017-12-27T17:43:50.886Z,8.13
2017-12-27T17:46:18.365Z,4.50
2017-12-27T17:48:46.511Z,6.63
2017-12-27T17:51:14.080Z,6.60
2017-12-27T17:53:41.580Z,9.33
2017-12-27T17:56:09.044Z,3.70
2017-12-27T17:58:36.531Z,7.80
2017-12-27T18:01:03.974Z,5.30
2017-12-27T18:03:31.563Z,5.67
2017-12-27T18:05:59.070Z,13.57
2017-12-27T18:08:26.548Z,8.47
2017-12-27T18:10:54.078Z,8.33
2017-12-27T18:13:22.504Z,11.20
2017-12-27T18:15:50.592Z,11.80
2017-12-27T18:18:18.026Z,12.00
2017-12-27T18:20:45.489Z,9.00
2017-12-27T18:23:13.573Z,9.37
2017-12-27T18:25:41.573Z,10.73
2017-12-27T18:28:09.788Z,8.77
2017-12-27T18:30:37.574Z,8.40
2017-12-27T18:33:05.024Z,10.90
2017-12-27T18:35:32.500Z,14.23
2017-12-27T18:38:00.028Z,15.90
2017-12-27T18:40:27.499Z,15.60
2017-12-27T18:42:54.952Z,17.90
2017-12-27T18:45:22.761Z,15.90
2017-12-27T18:47:51.937Z,9.90
2017-12-27T18:50:19.591Z,14.93
2017-12-27T18:52:47.015Z,17.10
2017-12-27T18:55:14.518Z,15.47
2017-12-27T18:57:42.024Z,15.87
2017-12-27T19:00:09.542Z,14.33
2017-12-27T19:02:37.343Z,11.87
2017-12-27T19:05:04.967Z,10.87
2017-12-27T19:07:32.463Z,9.27
2017-12-27T19:10:01.230Z,10.00
2017-12-27T19:12:29.996Z,11.63
2017-12-27T19:14:58.964Z,12.87
2017-12-27T19:17:26.488Z,10.60
2017-12-27T19:19:54.905Z,12.67
2017-12-27T19:22:22.335Z,8.80
2017-12-27T19:24:51.008Z,9.40
2017-12-27T19:27:18.485Z,9.70
2017-12-27T19:29:46.668Z,9.93
2017-12-27T19:32:15.060Z,11.60
2017-12-27T19:34:43.271Z,7.33
2017-12-27T19:37:11.665Z,13.63
2017-12-27T19:39:39.396Z,15.53
2017-12-27T19:42:07.913Z,38.00
2017-12-27T19:44:35.431Z,68.30
2017-12-27T19:47:03.636Z,32.50
2017-12-27T19:49:31.483Z,61.67
2017-12-27T19:52:00.232Z,79.93
2017-12-27T19:54:27.685Z,100.70
2017-12-27T19:56:55.169Z,47.00
2017-12-27T19:59:23.421Z,20.27
2017-12-27T20:01:50.934Z,15.70
2017-12-27T20:04:18.838Z,8.80
2017-12-27T20:06:46.316Z,11.90
2017-12-27T20:09:13.920Z,12.50
2017-12-27T20:11:41.382Z,14.33
2017-12-27T20:14:09.564Z,13.93
2017-12-27T20:16:37.315Z,12.30
2017-12-27T20:19:05.080Z,16.37
2017-12-27T20:21:32.840Z,13.67
2017-12-27T20:24:00.299Z,13.77
2017-12-27T20:26:28.415Z,15.13
2017-12-27T20:28:56.952Z,13.93
2017-12-27T20:31:24.943Z,11.20
2017-12-27T20:33:52.834Z,11.33
2017-12-27T20:36:21.676Z,13.43
2017-12-27T20:38:49.844Z,31.73
2017-12-27T20:41:17.379Z,56.73
2017-12-27T20:43:45.712Z,13.97
2017-12-27T20:46:13.634Z,12.70
2017-12-27T20:48:42.922Z,14.90
2017-12-27T20:51:11.798Z,9.37
2017-12-27T20:53:39.326Z,13.90
2017-12-27T20:56:06.890Z,14.73
2017-12-27T20:58:34.520Z,17.17
2017-12-27T21:01:02.180Z,10.43
2017-12-27T21:03:29.774Z,13.40
2017-12-27T21:05:57.200Z,13.20
2017-12-27T21:08:24.996Z,11.77
2017-12-27T21:10:52.449Z,11.00
2017-12-27T21:13:20.285Z,11.33
2017-12-27T21:15:48.205Z,12.83
2017-12-27T21:18:16.091Z,15.17
2017-12-27T21:20:44.290Z,9.80
2017-12-27T21:23:11.760Z,8.73
2017-12-27T21:25:39.667Z,14.10
2017-12-27T21:28:07.523Z,7.77
2017-12-27T21:30:36.208Z,12.53
2017-12-27T21:33:03.772Z,11.73
2017-12-27T21:35:31.415Z,16.00
2017-12-27T21:37:58.902Z,11.47
2017-12-27T21:40:27.553Z,12.10
2017-12-27T21:42:55.005Z,13.33
2017-12-27T21:45:22.752Z,11.03
2017-12-27T21:47:56.177Z,8.80
2017-12-27T21:50:23.961Z,11.57
2017-12-27T21:52:51.449Z,10.13
2017-12-27T21:55:19.031Z,8.80
2017-12-27T21:57:46.541Z,11.17
2017-12-27T22:00:20.363Z,8.83
2017-12-27T22:02:48.661Z,7.70
2017-12-27T22:05:16.218Z,9.10
2017-12-27T22:07:43.679Z,7.37
2017-12-27T22:10:11.238Z,8.37
2017-12-27T22:12:38.717Z,9.00
2017-12-27T22:15:06.726Z,7.17
2017-12-27T22:17:34.964Z,9.53
2017-12-27T22:20:03.073Z,9.40
2017-12-27T22:22:30.538Z,10.10
2017-12-27T22:24:59.493Z,7.13
2017-12-27T22:27:26.969Z,9.37
2017-12-27T22:29:55.724Z,9.10
2017-12-27T22:32:23.331Z,10.20
2017-12-27T22:34:51.793Z,15.27
2017-12-27T22:37:19.248Z,11.00
2017-12-27T22:39:46.797Z,9.87
2017-12-27T22:42:14.450Z,12.23
2017-12-27T22:44:41.887Z,12.47
2017-12-27T22:47:10.029Z,18.03
2017-12-27T22:49:37.844Z,15.10
2017-12-27T22:52:05.799Z,20.37
2017-12-27T22:54:33.242Z,18.60
2017-12-27T22:57:00.698Z,19.70
2017-12-27T22:59:28.168Z,20.70
2017-12-27T23:01:55.733Z,24.00
2017-12-27T23:04:23.420Z,22.13
2017-12-27T23:06:51.671Z,17.60
2017-12-27T23:09:19.130Z,21.63
2017-12-27T23:11:46.672Z,18.70
2017-12-27T23:14:14.768Z,11.43
2017-12-27T23:16:42.204Z,10.00
2017-12-27T23:19:09.786Z,5.67
2017-12-27T23:21:37.402Z,4.30
2017-12-27T23:24:04.816Z,2.00
2017-12-27T23:26:33.582Z,2.70
2017-12-27T23:29:02.333Z,1.90
2017-12-27T23:31:30.403Z,1.90
2017-12-27T23:33:57.839Z,2.73
2017-12-27T23:36:26.068Z,3.20
2017-12-27T23:38:53.513Z,1.47
2017-12-27T23:41:21.058Z,1.60
2017-12-27T23:43:48.636Z,1.60
2017-12-27T23:46:16.078Z,2.60
2017-12-27T23:48:44.173Z,3.40
2017-12-27T23:51:12.161Z,3.33
2017-12-27T23:53:40.785Z,1.30
2017-12-27T23:56:08.245Z,1.00
2017-12-27T23:58:35.803Z,4.20
